Tropical Cyclones
[Index]
Main Index Home Page Stock Weather Photos Extreme Storms Discussion Storm News and Storm Chasing Reports Tropical Cyclones / Hurricanes / Typhoons Weather Data and Links Wild Fires / Bushfires Weather Observation Techniques Weather Picture Catalogue Tornado Pictures and Reports Stock Video Footage and DVDs for sale
Season 1989-1990 Tropical Cyclone HILDA Track Map
Season 1989-1990 Summaries: [BoM-AU] [JTWC-AU] [JTWC-SIO] [JTWC-SPAC] [JTWC-SH]
<<- Previous TC | JTWC 1989-1990 Season | Next TC ->>

click for intensity scale information  Lat/long Grid: Show Hide

 Date Labels: Show Hide

Joint Typhoon Warning Centre Cyclone Data

Name: HILDA

01 Mar 1990 06:00 UTC to 08 Mar 1990 00:00 UTC

    date/time    lat    long     hPa   cat  kts
1990-03-01 06   14.5   170.0                  15          
1990-03-01 12   12.9   168.3                  15          
1990-03-01 18   11.3   166.6                  15          
1990-03-02 00   10.6   164.9                  15          
1990-03-02 06   10.6   162.9                  15          
1990-03-02 12   11.6   160.7                  15          
1990-03-02 18   13.2   158.8                  15          
1990-03-03 00   14.7   157.3                  15          
1990-03-03 06   15.9   156.2                  15          
1990-03-03 12   16.8   155.3                  15          
1990-03-03 18   17.3   154.7                  20          
1990-03-04 00   18.1   153.9                  25          
1990-03-04 06   19.0   153.4                  30          
1990-03-04 12   19.7   153.0                  35          
1990-03-04 18   20.0   152.7                  35          
1990-03-05 00   20.0   152.5                  35          
1990-03-05 06   19.7   152.5                  35          
1990-03-05 12   19.2   152.6                  35          
1990-03-05 18   18.5   152.8                  35          
1990-03-06 00   18.0   153.6            1     40          
1990-03-06 06   18.2   154.7            1     50          
1990-03-06 12   18.6   156.0            2     55          
1990-03-06 18   19.4   157.4            2     60          
1990-03-07 00   20.3   159.1            2     60          
1990-03-07 06   21.4   161.5            2     55          
1990-03-07 12   23.2   163.6            2     55          
1990-03-07 18   26.3   165.7            1     50          
1990-03-08 00   31.0   166.5            1     45          
Winds are 1-min average.

Tropical cyclone tracks developed by Michael Bath using data from the Joint Typhoon Warning Centre Best Tracks and Google Maps.


[Australian Severe Weather index] [Copyright Notice] [Email Contacts] [Search This Site] [Privacy Policy]
Document: tropical_cyclone_hilda.htm Updated: 18 September 2016